createdAt,value
2017-08-01T02:16:30.519Z,7.87
2017-08-01T02:19:00.949Z,7.10
2017-08-01T02:21:34.732Z,7.70
2017-08-01T02:24:06.672Z,8.23
2017-08-01T02:26:37.186Z,9.30
2017-08-01T03:41:08.340Z,12.45
2017-08-01T03:43:39.581Z,12.90
2017-08-01T03:46:11.022Z,12.32
2017-08-01T03:48:40.883Z,13.00
2017-08-01T03:51:10.982Z,15.25
2017-08-01T03:53:42.225Z,12.30
2017-08-01T03:56:13.144Z,13.82
2017-08-01T03:58:45.065Z,13.53
2017-08-01T04:01:16.995Z,15.20
2017-08-01T04:03:48.525Z,14.60
2017-08-01T04:06:19.352Z,12.75
2017-08-01T04:08:48.185Z,14.57
2017-08-01T04:11:23.028Z,14.35
2017-08-01T04:13:55.399Z,14.65
2017-08-01T04:16:26.115Z,12.30
2017-08-01T04:18:55.823Z,13.73
2017-08-01T04:21:26.525Z,13.55
2017-08-01T04:23:59.118Z,12.98
2017-08-01T04:26:31.639Z,12.23
2017-08-01T04:29:01.538Z,13.15
2017-08-01T04:31:32.148Z,11.68
2017-08-01T04:34:03.668Z,12.23
2017-08-01T04:36:33.584Z,11.45
2017-08-01T04:39:02.882Z,11.43
2017-08-01T04:41:32.785Z,12.37
2017-08-01T04:44:03.165Z,11.20
2017-08-01T04:46:35.068Z,9.52
2017-08-01T04:49:05.770Z,10.20
2017-08-01T04:51:37.892Z,9.83
2017-08-01T04:54:09.808Z,11.73
2017-08-01T04:56:40.045Z,9.73
2017-08-01T04:59:09.574Z,9.65
2017-08-01T05:01:40.743Z,9.70
2017-08-01T05:04:11.346Z,8.73
2017-08-01T05:06:42.707Z,10.48
2017-08-01T05:09:13.886Z,9.90
2017-08-01T05:11:46.945Z,8.57
2017-08-01T05:14:16.753Z,8.57
2017-08-01T05:16:45.635Z,9.27
2017-08-01T05:19:16.435Z,9.48
2017-08-01T05:21:45.600Z,9.17
2017-08-01T05:24:14.435Z,10.10
2017-08-01T05:26:43.348Z,9.20
2017-08-01T05:29:11.450Z,9.43
2017-08-01T05:31:39.530Z,9.03
2017-08-01T05:34:07.665Z,11.00
2017-08-01T05:36:35.766Z,8.20
2017-08-01T05:39:03.851Z,11.67
2017-08-01T05:41:31.996Z,12.10
2017-08-01T05:44:00.089Z,11.20
2017-08-01T05:46:28.241Z,8.87
2017-08-01T05:48:56.347Z,8.50
2017-08-01T05:51:24.439Z,8.33
2017-08-01T05:53:53.431Z,10.57
2017-08-01T05:56:22.291Z,11.60
2017-08-01T05:58:50.390Z,8.17
2017-08-01T06:01:18.513Z,10.20
2017-08-01T06:03:46.604Z,9.87
2017-08-01T06:06:14.845Z,9.27
2017-08-01T06:08:42.951Z,9.83
2017-08-01T06:11:12.247Z,8.00
2017-08-01T06:13:40.363Z,7.70
2017-08-01T06:16:09.219Z,8.63
2017-08-01T06:18:37.343Z,11.77
2017-08-01T06:21:05.439Z,13.97
2017-08-01T06:23:33.664Z,8.73
2017-08-01T06:26:01.799Z,8.83
2017-08-01T06:28:29.889Z,11.00
2017-08-01T06:30:57.993Z,8.75
2017-08-01T06:33:29.288Z,8.23
2017-08-01T06:36:00.176Z,10.82
2017-08-01T06:38:29.799Z,10.83
2017-08-01T06:41:02.951Z,11.13
2017-08-01T06:43:34.445Z,9.40
2017-08-01T06:46:05.359Z,9.13
2017-08-01T06:48:37.039Z,6.90
2017-08-01T06:51:09.388Z,9.90
2017-08-01T06:53:40.695Z,8.03
2017-08-01T06:56:11.313Z,9.60
2017-08-01T06:58:41.935Z,8.30
2017-08-01T07:01:11.570Z,6.83
2017-08-01T07:03:43.384Z,8.70
2017-08-01T07:06:13.220Z,11.70
2017-08-01T07:08:43.049Z,10.33
2017-08-01T07:11:12.592Z,8.13
2017-08-01T07:13:42.320Z,7.30
2017-08-01T07:16:13.260Z,10.17
2017-08-01T07:18:43.311Z,7.00
2017-08-01T07:21:13.648Z,7.07
2017-08-01T07:23:46.291Z,6.50
2017-08-01T07:26:16.184Z,9.13
2017-08-01T07:28:47.844Z,8.93
2017-08-01T07:31:18.387Z,10.93
2017-08-01T07:33:48.915Z,10.03
2017-08-01T07:36:19.144Z,8.00
2017-08-01T07:38:50.431Z,8.03
2017-08-01T07:41:20.377Z,9.80
2017-08-01T07:43:49.840Z,7.00
2017-08-01T07:46:19.859Z,6.70
2017-08-01T07:48:50.796Z,6.03
2017-08-01T07:51:21.303Z,5.40
2017-08-01T07:53:51.520Z,6.37
2017-08-01T07:56:21.681Z,7.50
2017-08-01T07:58:52.967Z,6.63
2017-08-01T08:03:56.487Z,5.93
2017-08-01T08:06:26.686Z,7.13
2017-08-01T08:08:56.644Z,12.40
2017-08-01T08:11:28.708Z,7.67
2017-08-01T08:14:00.020Z,5.90
2017-08-01T08:16:29.426Z,6.10
2017-08-01T08:18:59.197Z,9.03
2017-08-01T08:21:31.021Z,4.97
2017-08-01T08:24:01.348Z,5.13
2017-08-01T08:26:32.111Z,5.70
2017-08-01T08:29:06.040Z,5.27
2017-08-01T08:31:36.313Z,4.60
2017-08-01T08:34:16.178Z,7.17
2017-08-01T08:36:46.789Z,11.87
2017-08-01T08:39:17.062Z,11.10
2017-08-01T10:15:06.476Z,4.00
2017-08-01T10:17:35.567Z,6.37
2017-08-01T11:03:41.622Z,4.40
2017-08-01T11:06:57.271Z,5.40
2017-08-01T11:10:04.342Z,9.30
2017-08-01T11:16:29.781Z,4.20
2017-08-01T11:26:10.836Z,4.83
2017-08-01T11:28:38.944Z,6.23
2017-08-01T11:31:07.068Z,4.50
2017-08-01T11:33:35.175Z,4.80
2017-08-01T11:36:04.026Z,9.00
2017-08-01T11:38:32.152Z,5.00
2017-08-01T11:43:45.220Z,5.97
2017-08-01T11:46:17.801Z,7.57
2017-08-01T11:48:57.540Z,6.40
2017-08-01T11:51:27.405Z,5.10
2017-08-01T11:57:06.942Z,4.20
2017-08-01T12:00:20.603Z,5.93
2017-08-01T12:02:50.748Z,4.30
2017-08-01T12:12:00.303Z,7.40
2017-08-01T12:14:45.716Z,5.50
2017-08-01T12:17:21.746Z,4.63
2017-08-01T12:39:28.717Z,4.93
2017-08-01T12:42:03.951Z,7.40
2017-08-01T12:44:45.812Z,5.57
2017-08-01T12:47:22.408Z,3.90
2017-08-01T12:49:57.746Z,8.53
2017-08-01T12:52:31.222Z,4.13
2017-08-01T13:00:50.577Z,3.87
2017-08-01T13:08:49.108Z,4.17
2017-08-01T13:14:06.049Z,4.37
2017-08-01T13:16:44.213Z,3.93
2017-08-01T13:19:28.776Z,6.73
2017-08-01T13:22:04.691Z,3.90
2017-08-01T13:24:38.389Z,5.67
2017-08-01T13:29:55.963Z,4.50
2017-08-01T13:32:28.050Z,5.47
2017-08-01T13:34:59.616Z,8.20
2017-08-01T13:37:30.875Z,6.33
2017-08-01T13:40:03.479Z,4.90
2017-08-01T13:42:38.584Z,4.80
2017-08-01T13:45:12.485Z,4.10
2017-08-01T13:47:45.492Z,11.40
2017-08-01T13:50:20.303Z,4.63
2017-08-01T13:52:52.350Z,5.80
2017-08-01T13:55:25.599Z,4.20
2017-08-01T13:57:59.505Z,3.60
2017-08-01T14:00:29.696Z,5.30
2017-08-01T14:03:04.094Z,4.63
2017-08-01T14:05:37.306Z,4.63
2017-08-01T14:08:08.299Z,4.23
2017-08-01T14:10:38.709Z,6.03
2017-08-01T14:13:09.412Z,5.60
2017-08-01T14:15:40.468Z,4.33
2017-08-01T14:18:14.906Z,4.17
2017-08-01T14:20:44.883Z,4.80
2017-08-01T14:23:15.403Z,6.47
2017-08-01T14:25:46.954Z,7.03
2017-08-01T14:28:23.085Z,5.50
2017-08-01T14:30:54.454Z,5.73
2017-08-01T14:33:28.394Z,5.33
2017-08-01T14:36:03.090Z,6.80
2017-08-01T14:38:41.838Z,5.70
2017-08-01T14:43:52.253Z,5.47
2017-08-01T14:46:23.921Z,6.17
2017-08-01T14:51:37.202Z,3.93
2017-08-01T14:54:09.062Z,3.50
2017-08-01T14:56:43.428Z,3.60
2017-08-01T14:59:20.630Z,5.83
2017-08-01T15:01:53.055Z,5.27
2017-08-01T15:04:27.128Z,4.03
2017-08-01T15:07:02.649Z,4.13
2017-08-01T15:09:41.942Z,3.57
2017-08-01T15:14:53.236Z,5.93
2017-08-01T15:17:30.310Z,5.60
2017-08-01T15:22:46.283Z,5.83
2017-08-01T15:25:32.040Z,6.90
2017-08-01T15:28:04.606Z,6.57
2017-08-01T15:30:38.956Z,5.47
2017-08-01T15:38:55.531Z,6.83
2017-08-01T15:41:36.551Z,4.67
2017-08-01T15:44:11.974Z,4.73
2017-08-01T15:46:57.608Z,6.10
2017-08-01T15:49:36.463Z,5.70
2017-08-01T15:52:13.331Z,4.90
2017-08-01T15:54:51.046Z,4.80
2017-08-01T15:57:27.218Z,5.27
2017-08-01T16:00:01.074Z,7.90
2017-08-01T16:02:36.746Z,6.33
2017-08-01T16:05:20.386Z,8.40
2017-08-01T16:07:59.994Z,6.37
2017-08-01T16:35:10.026Z,4.80
2017-08-01T16:37:44.960Z,5.50
2017-08-01T16:45:42.748Z,5.53
2017-08-01T16:48:27.230Z,5.60
2017-08-01T16:51:22.824Z,6.43
2017-08-01T16:54:10.540Z,5.00
2017-08-01T16:56:54.497Z,5.53
2017-08-01T16:59:25.106Z,5.67
2017-08-01T17:01:54.219Z,5.57
2017-08-01T17:04:28.873Z,5.03
2017-08-01T17:13:47.767Z,6.00
2017-08-01T17:16:25.674Z,5.40
2017-08-01T17:19:07.601Z,5.40
2017-08-01T17:21:40.669Z,8.07
2017-08-01T17:24:20.849Z,4.80
2017-08-01T17:26:51.783Z,4.57
2017-08-01T17:29:22.808Z,4.80
2017-08-01T17:31:50.989Z,5.37
2017-08-01T17:34:19.085Z,10.00
2017-08-01T17:36:48.161Z,4.93
2017-08-01T17:39:16.435Z,4.80
2017-08-01T17:41:44.546Z,5.40
2017-08-01T17:44:12.651Z,5.30
2017-08-01T17:46:40.804Z,5.50
2017-08-01T17:49:08.905Z,4.90
2017-08-01T17:51:37.054Z,5.50
2017-08-01T17:54:05.146Z,6.13
2017-08-01T17:56:33.240Z,6.30
2017-08-01T17:59:01.493Z,6.33
2017-08-01T18:01:29.596Z,10.70
2017-08-01T18:03:59.385Z,7.30
2017-08-01T18:06:27.652Z,6.30
2017-08-01T18:08:55.754Z,6.53
2017-08-01T18:11:25.930Z,7.70
2017-08-01T18:13:54.042Z,8.00
2017-08-01T18:16:28.090Z,6.77
2017-08-01T18:18:58.548Z,5.23
2017-08-01T18:21:29.679Z,8.43
2017-08-01T18:24:02.218Z,9.30
2017-08-01T18:26:32.442Z,7.07
2017-08-01T18:29:04.224Z,8.13
2017-08-01T18:31:34.978Z,7.47
2017-08-01T18:34:07.227Z,9.83
2017-08-01T18:36:40.265Z,6.87
2017-08-01T18:39:12.227Z,6.60
2017-08-01T18:41:42.035Z,5.30
2017-08-01T18:44:15.761Z,7.23
2017-08-01T18:46:49.239Z,9.83
2017-08-01T18:49:19.767Z,17.93
2017-08-01T18:51:51.818Z,21.43
2017-08-01T18:54:23.576Z,10.87
2017-08-01T18:56:56.318Z,7.30
2017-08-01T18:59:28.244Z,7.17
2017-08-01T19:02:02.762Z,9.73
2017-08-01T19:04:33.312Z,8.77
2017-08-01T19:07:06.312Z,8.97
2017-08-01T19:09:39.270Z,10.40
2017-08-01T19:12:09.763Z,9.93
2017-08-01T19:14:42.685Z,9.70
2017-08-01T19:17:13.362Z,18.50
2017-08-01T19:19:47.367Z,11.27
2017-08-01T19:22:19.200Z,10.90
2017-08-01T19:24:51.470Z,10.10
2017-08-01T19:27:21.672Z,10.93
2017-08-01T19:29:52.177Z,12.10
2017-08-01T19:32:24.904Z,8.17
2017-08-01T19:34:55.246Z,8.70
2017-08-01T19:37:30.025Z,9.90
2017-08-01T19:39:59.716Z,8.63
2017-08-01T19:42:28.115Z,7.87
2017-08-01T19:44:57.269Z,10.90
2017-08-01T19:47:25.799Z,13.40
2017-08-01T19:49:54.180Z,9.13
2017-08-01T19:52:23.364Z,9.50
2017-08-01T19:54:51.864Z,14.57
2017-08-01T19:57:21.017Z,10.93
2017-08-01T19:59:49.433Z,17.67
2017-08-01T20:02:18.665Z,11.40
2017-08-01T20:04:47.061Z,11.60
2017-08-01T20:07:15.527Z,11.23
2017-08-01T20:09:43.907Z,9.43
2017-08-01T20:12:12.317Z,10.50
2017-08-01T20:14:40.754Z,9.90
2017-08-01T20:17:09.149Z,10.17
2017-08-01T20:19:37.477Z,10.20
2017-08-01T20:24:45.694Z,9.53
2017-08-01T20:27:21.446Z,9.30
2017-08-01T20:29:53.386Z,10.93
2017-08-01T20:32:28.014Z,10.03
2017-08-01T20:35:00.972Z,9.80
2017-08-01T20:37:31.732Z,10.47
2017-08-01T20:40:05.199Z,10.93
2017-08-01T20:42:39.192Z,10.60
2017-08-01T20:45:10.363Z,9.80
2017-08-01T20:47:43.311Z,10.73
2017-08-01T20:50:13.443Z,9.90
2017-08-01T20:52:42.523Z,12.83
2017-08-01T20:55:15.386Z,9.57
2017-08-01T20:57:48.652Z,9.80
2017-08-01T21:00:19.553Z,9.90
2017-08-01T21:02:50.413Z,10.23
2017-08-01T21:05:24.678Z,11.30
2017-08-01T21:07:55.328Z,13.63
2017-08-01T21:10:27.668Z,12.70
2017-08-01T21:12:59.395Z,12.40
2017-08-01T21:15:31.553Z,13.93
2017-08-01T21:23:19.733Z,13.97
2017-08-01T21:25:55.936Z,13.67
2017-08-01T21:31:04.540Z,12.43
2017-08-01T21:33:35.924Z,12.20
2017-08-01T21:36:10.722Z,13.87
2017-08-01T21:38:43.410Z,13.87
2017-08-01T21:41:15.896Z,13.40
2017-08-01T21:46:24.023Z,12.40
2017-08-01T21:48:57.870Z,12.40
2017-08-01T21:51:30.456Z,11.37
2017-08-01T21:54:02.879Z,10.17
2017-08-01T21:56:34.689Z,9.77
2017-08-01T21:59:05.538Z,8.27
2017-08-01T22:01:37.007Z,8.30
2017-08-01T22:04:06.281Z,8.63
2017-08-01T22:06:34.588Z,9.33
2017-08-01T22:09:03.481Z,9.53
2017-08-01T22:11:36.431Z,10.13
2017-08-01T22:14:07.548Z,10.47
2017-08-01T22:16:39.938Z,9.63
2017-08-01T22:19:10.786Z,10.80
2017-08-01T22:21:43.679Z,10.80
2017-08-01T22:24:16.975Z,10.10
2017-08-01T22:26:48.812Z,9.35
2017-08-01T22:29:22.981Z,9.57
2017-08-01T22:31:55.311Z,9.90
2017-08-01T22:34:27.395Z,9.73
2017-08-01T22:37:00.236Z,9.48
2017-08-01T22:39:34.028Z,11.20
2017-08-01T22:42:07.860Z,9.10
2017-08-01T22:44:39.344Z,9.20
2017-08-01T22:49:49.792Z,9.13
2017-08-01T22:52:21.477Z,10.20
2017-08-01T22:54:54.944Z,9.73
2017-08-01T22:57:26.565Z,10.27
2017-08-01T22:59:55.641Z,11.80
2017-08-01T23:02:27.445Z,11.20
2017-08-01T23:04:59.761Z,11.50
2017-08-01T23:07:31.425Z,11.43
2017-08-01T23:10:12.687Z,14.17
2017-08-01T23:12:44.963Z,11.60
2017-08-01T23:15:20.237Z,12.37
2017-08-01T23:17:48.357Z,12.53
2017-08-01T23:20:46.554Z,11.67
2017-08-01T23:23:24.016Z,11.23
2017-08-01T23:40:21.583Z,10.02
2017-08-01T23:42:54.014Z,10.27
2017-08-01T23:45:27.580Z,9.87
2017-08-01T23:48:04.715Z,9.53
2017-08-01T23:50:35.396Z,9.88
2017-08-01T23:53:06.810Z,10.63
2017-08-01T23:55:40.803Z,10.32
2017-08-01T23:58:13.143Z,10.37
